Latest Weather Observations for Moorabbin Airport

IDV60801

Issued at 6:31 pm EDT Friday 6 March 2015 (issued every 30 minutes, with the page automatically refreshed every 10 minutes)

About weather observations | Map of weather stations | Latest weather observations for VIC | Other Formats
Station Details ID: 086077 Name: MOORABBIN AIRPORT Lat: -37.98 Lon: 145.10 Height: 12.1 m
Data from the previous 72 hours. | See also: Recent months at Moorabbin Airport
Date/Time
EDT
Temp
°C
App
Temp
°C
Dew
Point
Rel
Hum
%
Delta-T
°C
Wind Press
QNH
hPa
Press
MSL
hPa
Rain
since 9 am
mm
Dir
 
Spd
km/h
Gust
km/h
Spd
kts
Gust
kts
06/06:30pm 18.3 14.7 13.2 72 2.9 SSW 24 32 13 17 1011.2 1011.2 0.0
06/06:00pm 18.3 13.9 13.0 71 3.0 SSW 28 35 15 19 1011.2 1011.1 0.0
06/05:30pm 18.8 14.4 13.0 69 3.3 SSW 28 35 15 19 1010.8 1010.8 0.0
06/05:00pm 18.6 14.3 13.2 71 3.1 SSW 28 37 15 20 1010.7 1010.7 0.0
06/04:31pm 19.2 14.9 13.2 68 3.4 SW 28 46 15 25 1010.8 1010.8 0.0
06/04:30pm 19.6 15.0 13.5 68 3.5 SSW 30 41 16 22 1010.8 1010.8 0.0
06/04:00pm 18.9 14.6 13.1 69 3.3 SW 28 37 15 20 1010.8 1010.8 0.0
06/03:30pm 19.1 14.2 12.6 66 3.6 SW 30 39 16 21 1011.0 1011.0 0.0
06/03:00pm 19.2 14.2 13.4 69 3.3 SW 32 46 17 25 1011.1 1011.1 0.0
06/02:30pm 19.3 14.7 13.5 69 3.3 SW 30 43 16 23 1011.1 1011.1 0.0
06/02:00pm 19.5 15.2 14.3 72 3.0 SW 30 39 16 21 1011.0 1011.0 0.0
06/01:30pm 19.0 14.7 14.5 75 2.6 SW 30 41 16 22 1011.1 1011.1 0.0
06/01:15pm 19.4 15.3 13.8 70 3.2 SW 28 46 15 25 1011.1 1011.1 0.0
06/01:03pm 18.5 15.6 15.0 80 2.0 SW 24 35 13 19 1011.0 1011.0 0.0
06/01:00pm 18.2 14.8 14.7 80 2.0 SW 26 39 14 21 1011.0 1011.0 0.0
06/12:32pm 17.1 14.0 14.6 85 1.4 WSW 24 39 13 21 1011.1 1011.1 0.0
06/12:30pm 17.2 14.1 14.5 84 1.6 WSW 24 41 13 22 1011.0 1011.0 0.0
06/12:06pm 18.9 15.6 14.0 73 2.8 W 24 37 13 20 1010.9 1010.9 0.0
06/12:00pm 18.7 15.4 14.0 74 2.7 W 24 43 13 23 1010.9 1010.9 0.0
06/11:30am 18.6 14.9 13.9 74 2.7 W 26 35 14 19 1011.1 1011.1 0.0
06/11:00am 18.0 14.6 13.7 76 2.4 W 24 37 13 20 1011.0 1011.0 0.0
06/10:36am 17.3 12.6 13.2 77 2.3 W 30 44 16 24 1010.9 1010.9 0.0
06/10:30am 17.2 12.8 12.9 76 2.4 WSW 28 43 15 23 1010.8 1010.8 0.0
06/10:05am 16.9 12.5 12.8 77 2.3 W 28 46 15 25 1010.6 1010.6 0.0
06/10:00am 16.9 12.1 12.8 77 2.3 W 30 46 16 25 1010.6 1010.6 0.0
06/09:55am 16.7 12.2 12.7 77 2.2 W 28 46 15 25 1010.5 1010.5 0.0
06/09:30am 16.5 11.1 12.3 76 2.3 W 32 46 17 25 1010.5 1010.5 0.0
06/09:00am 16.3 11.6 11.9 75 2.4 W 28 43 15 23 1010.4 1010.4 0.2
06/08:30am 15.9 11.1 11.5 75 2.4 W 28 44 15 24 1010.2 1010.2 0.2
06/08:00am 15.6 11.4 11.0 74 2.5 W 24 39 13 21 1010.2 1010.2 0.2
06/07:30am 15.4 10.5 10.0 70 2.8 W 26 41 14 22 1010.2 1010.2 0.2
06/07:00am 15.5 10.6 10.1 70 2.8 W 26 43 14 23 1009.9 1009.9 0.2
06/06:30am 15.2 10.6 9.6 69 2.9 W 24 41 13 22 1009.6 1009.6 0.2
06/06:14am 15.1 9.7 9.5 69 2.9 W 28 46 15 25 1009.8 1009.8 0.2
06/06:00am 15.1 10.3 9.0 67 3.1 W 24 39 13 21 1010.1 1010.1 0.2
06/05:30am 15.1 9.1 8.8 66 3.2 W 30 48 16 26 1010.2 1010.2 0.2
06/05:03am 14.9 9.3 8.8 67 3.1 WNW 28 46 15 25 1010.3 1010.3 0.2
06/05:00am 14.9 9.7 8.8 67 3.1 WNW 26 46 14 25 1010.3 1010.3 0.2
06/04:45am 14.8 9.2 8.7 67 3.1 WNW 28 48 15 26 1010.5 1010.5 0.2
06/04:30am 14.8 10.7 8.7 67 3.1 W 20 33 11 18 1010.8 1010.8 0.2
06/04:00am 14.7 9.8 8.4 66 3.2 WNW 24 39 13 21 1011.2 1011.2 0.2
06/03:47am 14.8 9.1 8.5 66 3.2 WNW 28 46 15 25 1011.5 1011.5 0.2
06/03:30am 14.9 9.3 8.6 66 3.2 WNW 28 43 15 23 1011.7 1011.7 0.2
06/03:12am 14.7 9.0 8.2 65 3.3 WNW 28 46 15 25 1012.0 1012.0 0.2
06/03:00am 14.8 9.1 8.3 65 3.3 W 28 44 15 24 1012.2 1012.2 0.2
06/02:50am 14.7 8.9 8.0 64 3.3 W 28 46 15 25 1012.3 1012.3 0.2
06/02:30am 14.8 9.8 8.1 64 3.4 W 24 41 13 22 1012.5 1012.5 0.2
06/02:00am 14.8 8.5 7.6 62 3.6 W 30 44 16 24 1013.0 1013.0 0.2
06/01:30am 14.6 9.4 7.2 61 3.6 WNW 24 48 13 26 1013.1 1013.1 0.2
06/01:00am 14.6 9.8 7.2 61 3.6 WNW 22 37 12 20 1013.3 1013.3 0.2
06/12:30am 14.7 8.6 6.8 59 3.8 W 28 48 15 26 1013.7 1013.7 0.2
06/12:29am 14.8 8.7 6.6 58 4.0 W 28 48 15 26 1013.7 1013.7 0.2
06/12:00am 15.0 9.3 6.6 57 4.1 WNW 26 41 14 22 1013.7 1013.7 0.2
 
Date/Time
EDT
Temp
°C
App
Temp
°C
Dew
Point
Rel
Hum
%
Delta-T
°C
Wind Press
QNH
hPa
Press
MSL
hPa
Rain
since 9 am
mm
Dir
 
Spd
km/h
Gust
km/h
Spd
kts
Gust
kts
05/11:30pm 15.1 9.7 6.4 56 4.2 W 24 39 13 21 1014.0 1014.0 0.2
05/11:00pm 15.2 9.1 6.7 57 4.1 W 28 48 15 26 1014.3 1014.3 0.2
05/10:53pm 15.2 9.0 6.2 55 4.3 W 28 48 15 26 1014.4 1014.4 0.2
05/10:30pm 15.2 9.8 6.5 56 4.2 W 24 37 13 20 1014.5 1014.5 0.2
05/10:00pm 15.6 9.4 6.3 54 4.5 W 28 43 15 23 1014.8 1014.8 0.2
05/09:30pm 15.7 9.4 5.6 51 4.8 W 28 39 15 21 1014.8 1014.8 0.2
05/09:00pm 16.3 10.0 5.6 49 5.1 W 28 43 15 23 1014.7 1014.7 0.2
05/08:30pm 16.5 11.5 6.3 51 5.0 W 22 35 12 19 1014.6 1014.6 0.2
05/08:00pm 16.7 11.2 5.9 49 5.2 WSW 24 35 13 19 1014.7 1014.7 0.2
05/07:30pm 17.1 11.4 4.8 44 5.8 WSW 24 35 13 19 1014.8 1014.8 0.2
05/07:00pm 17.0 12.9 7.9 55 4.6 SW 19 26 10 14 1015.1 1015.1 0.2
05/06:30pm 16.9 11.6 7.0 52 4.9 SW 24 35 13 19 1015.1 1015.1 0.2
05/06:00pm 17.2 11.9 7.0 51 5.1 SW 24 39 13 21 1015.4 1015.4 0.2
05/05:30pm 17.6 12.0 7.1 50 5.2 SW 26 39 14 21 1015.6 1015.6 0.2
05/05:00pm 17.9 12.3 7.3 50 5.3 SW 26 39 14 21 1015.8 1015.8 0.2
05/04:30pm 17.7 12.1 7.2 50 5.3 SSW 26 37 14 20 1016.0 1016.0 0.2
05/04:00pm 18.3 12.9 6.5 46 5.8 SW 24 35 13 19 1016.0 1016.0 0.2
05/03:30pm 17.5 11.3 6.1 47 5.6 SSW 28 39 15 21 1016.7 1016.7 0.2
05/03:00pm 17.6 11.0 5.9 46 5.7 SSW 30 39 16 21 1016.9 1016.9 0.2
05/02:30pm 17.6 11.3 5.5 45 5.9 SW 28 41 15 22 1016.8 1016.8 0.2
05/02:09pm 17.2 11.3 7.5 53 4.9 SW 28 46 15 25 1017.1 1017.1 0.2
05/02:00pm 17.0 11.3 6.5 50 5.2 SW 26 41 14 22 1017.2 1017.2 0.2
05/01:30pm 17.4 10.6 6.9 50 5.2 SW 32 43 17 23 1017.4 1017.4 0.2
05/01:00pm 17.6 10.8 6.8 49 5.4 SW 32 46 17 25 1017.8 1017.8 0.2
05/12:30pm 15.9 9.5 6.9 55 4.4 SSW 30 41 16 22 1017.8 1017.8 0.2
05/12:00pm 17.2 9.9 4.5 43 6.0 SW 32 46 17 25 1017.8 1017.8 0.2
05/11:34am 16.0 9.0 6.2 52 4.8 SW 32 50 17 27 1017.8 1017.8 0.2
05/11:30am 16.7 9.8 7.4 54 4.6 SW 33 46 18 25 1017.7 1017.7 0.2
05/11:00am 16.8 10.1 7.4 54 4.7 SW 32 50 17 27 1017.5 1017.5 0.2
05/10:32am 14.7 8.8 7.5 62 3.6 WSW 28 46 15 25 1017.2 1017.2 0.0
05/10:30am 15.2 9.2 7.2 59 3.9 SW 28 46 15 25 1017.2 1017.2 0.0
05/10:26am 15.4 9.4 6.9 57 4.2 WSW 28 46 15 25 1017.1 1017.1 0.0
05/10:00am 14.2 9.1 7.5 64 3.3 SW 24 35 13 19 1017.0 1017.0 0.0
05/09:30am 14.2 7.7 6.3 59 3.8 SW 30 57 16 31 1016.7 1016.7 0.0
05/09:02am 13.5 6.5 6.8 64 3.2 WSW 33 52 18 28 1016.6 1016.6 0.0
05/09:00am 14.1 7.1 6.2 59 3.8 WSW 32 46 17 25 1016.3 1016.3 1.0
05/08:34am 14.3 8.0 5.7 56 4.1 SW 28 54 15 29 1015.8 1015.8 -
05/08:30am 14.0 8.8 7.1 63 3.4 SW 24 41 13 22 1015.7 1015.7 -
05/08:08am 13.7 6.7 5.8 59 3.7 WSW 32 56 17 30 1015.6 1015.6 -
05/08:00am 13.5 7.2 5.9 60 3.6 WSW 28 41 15 22 1015.2 1015.2 -
05/07:30am 13.1 6.6 6.5 64 3.2 WSW 30 48 16 26 1014.7 1014.7 -
05/07:27am 13.3 7.0 5.5 59 3.7 WSW 28 48 15 26 1014.7 1014.7 -
05/07:00am 13.1 7.1 5.5 60 3.6 WSW 26 43 14 23 1014.3 1014.3 -
05/06:30am 12.5 6.1 5.4 62 3.3 WSW 28 43 15 23 1014.4 1014.4 -
05/06:02am 13.7 6.9 5.3 57 3.9 WSW 30 48 16 26 1013.6 1013.6 -
05/06:00am 13.8 7.1 5.4 57 3.9 WSW 30 43 16 23 1013.5 1013.5 -
05/05:30am 13.9 6.9 5.8 58 3.8 WSW 32 50 17 27 1013.3 1013.3 -
05/05:00am 14.4 6.9 6.3 58 3.9 WSW 35 65 19 35 1012.7 1012.7 -
05/04:30am 14.8 8.0 7.6 62 3.6 WSW 33 54 18 29 1012.1 1012.1 -
05/04:00am 15.0 7.8 9.1 68 3.0 WSW 37 74 20 40 1011.5 1011.5 -
05/03:30am 15.5 8.8 9.8 69 3.0 WSW 35 57 19 31 1010.6 1010.6 -
05/03:06am 15.4 10.3 11.8 79 1.9 W 30 50 16 27 1010.0 1010.0 -
05/03:00am 15.7 10.9 13.0 84 1.5 W 30 48 16 26 1009.7 1009.7 1.0
05/02:44am 15.4 8.7 12.2 81 1.7 W 39 63 21 34 1009.8 1009.8 -
05/02:30am 17.1 11.4 11.8 71 2.9 W 33 59 18 32 1009.4 1009.4 -
05/02:00am 17.7 12.2 11.7 68 3.3 W 32 56 17 30 1009.4 1009.4 -
05/01:30am 18.1 11.8 11.0 63 3.8 W 35 61 19 33 1009.4 1009.4 -
05/01:22am 18.4 12.5 10.5 60 4.2 W 32 56 17 30 1009.4 1009.4 -
05/01:00am 18.5 14.2 10.8 61 4.2 W 24 39 13 21 1009.4 1009.4 -
05/12:30am 19.0 13.1 10.3 57 4.7 W 32 52 17 28 1009.4 1009.4 -
05/12:04am 19.9 14.6 10.0 53 5.3 WNW 28 48 15 26 1009.1 1009.1 -
05/12:00am 19.9 15.3 9.8 52 5.4 WNW 24 43 13 23 1009.1 1009.1 -
 
Date/Time
EDT
Temp
°C
App
Temp
°C
Dew
Point
Rel
Hum
%
Delta-T
°C
Wind Press
QNH
hPa
Press
MSL
hPa
Rain
since 9 am
mm
Dir
 
Spd
km/h
Gust
km/h
Spd
kts
Gust
kts
04/11:30pm 19.6 13.9 9.8 53 5.2 W 30 48 16 26 1008.8 1008.8 -
04/11:04pm 20.1 14.9 10.2 53 5.3 W 28 50 15 27 1008.9 1008.9 -
04/11:00pm 20.0 16.0 10.4 54 5.2 W 22 39 12 21 1008.9 1008.9 -
04/10:30pm 20.3 16.2 11.5 57 4.9 W 24 39 13 21 1009.3 1009.3 -
04/10:00pm 20.4 17.5 12.4 60 4.5 W 19 28 10 15 1009.4 1009.4 -
04/09:30pm 20.8 18.3 10.9 53 5.4 W 15 24 8 13 1009.3 1009.3 -
04/09:00pm 21.0 17.7 10.8 52 5.6 W 19 28 10 15 1009.1 1009.1 0.0
04/08:30pm 21.3 18.7 10.8 51 5.8 W 15 26 8 14 1009.0 1009.0 -
04/08:00pm 21.5 18.4 11.5 53 5.6 WSW 19 30 10 16 1009.2 1009.2 -
04/07:30pm 21.8 18.2 11.8 53 5.6 WSW 22 32 12 17 1009.2 1009.2 -
04/07:00pm 22.4 18.9 12.1 52 5.8 SW 22 32 12 17 1009.7 1009.7 -
04/06:30pm 21.9 18.6 11.0 50 6.0 SW 19 26 10 14 1009.9 1009.9 -
04/06:00pm 22.4 19.3 11.5 50 6.1 WSW 19 30 10 16 1010.1 1010.1 -
04/05:30pm 21.9 18.7 11.3 51 5.9 SW 19 24 10 13 1010.3 1010.3 -
04/05:00pm 22.2 20.3 11.9 52 5.8 SW 13 20 7 11 1010.6 1010.6 -
04/04:30pm 22.1 19.6 11.2 50 6.0 SW 15 24 8 13 1010.9 1010.9 -
04/04:00pm 22.2 19.5 10.4 47 6.5 SW 15 24 8 13 1011.2 1011.2 -
04/03:30pm 21.9 19.1 10.1 47 6.4 WSW 15 26 8 14 1011.6 1011.6 -
04/03:00pm 21.6 18.1 10.1 48 6.2 SW 19 26 10 14 1012.3 1012.3 0.0
04/02:30pm 21.1 17.8 9.4 47 6.2 W 17 26 9 14 1012.7 1012.7 -
04/02:00pm 20.6 17.7 9.8 50 5.8 W 15 22 8 12 1013.2 1013.2 -
04/01:30pm 19.3 16.1 9.8 54 5.1 WSW 17 26 9 14 1013.6 1013.6 -
04/01:00pm 19.6 16.3 9.5 52 5.4 W 17 28 9 15 1014.0 1014.0 -
04/12:30pm 19.8 - 9.7 52 5.4 - - - - - 1014.5 1014.5 -
04/12:00pm 19.4 16.0 9.3 52 5.3 WSW 17 24 9 13 1015.2 1015.2 0.0
04/11:30am 18.3 14.5 9.9 58 4.5 WSW 20 32 11 17 1015.5 1015.5 0.0
04/11:00am 17.3 13.8 10.2 63 3.8 W 19 28 10 15 1015.6 1015.6 0.0
04/10:30am 18.4 14.7 10.3 59 4.3 W 20 28 11 15 1015.4 1015.4 0.0
04/10:00am 17.6 13.9 10.0 61 4.0 W 20 26 11 14 1015.4 1015.4 0.0
04/09:30am 17.4 13.9 10.1 62 3.9 WNW 19 24 10 13 1015.3 1015.3 0.0
04/09:00am 17.3 14.3 10.7 65 3.5 WNW 17 24 9 13 1015.4 1015.4 0.0
04/08:30am 16.8 14.1 10.2 65 3.5 WNW 15 22 8 12 1015.2 1015.2 0.0
04/08:00am 16.3 14.4 10.4 68 3.1 W 11 17 6 9 1015.0 1015.0 0.0
04/07:30am 15.9 13.5 10.2 69 3.0 W 13 20 7 11 1014.7 1014.7 0.0
04/07:00am 16.5 14.6 10.6 68 3.1 W 11 13 6 7 1014.5 1014.5 0.0
04/06:30am 16.5 15.6 11.2 71 2.9 WNW 7 13 4 7 1014.4 1014.4 0.0
04/06:00am 16.6 14.4 10.9 69 3.0 W 13 19 7 10 1014.5 1014.5 0.0
04/05:30am 16.6 15.2 10.9 69 3.1 W 9 17 5 9 1014.4 1014.4 0.0
04/05:00am 16.8 14.7 11.1 69 3.1 WSW 13 19 7 10 1014.6 1014.6 0.0
04/04:30am 16.1 15.4 11.5 74 2.5 N 6 7 3 4 1014.6 1014.6 0.0
04/04:00am 16.1 15.4 11.5 74 2.5 NNE 6 7 3 4 1014.6 1014.6 0.0
04/03:30am 16.0 15.2 11.6 75 2.4 NNE 7 9 4 5 1014.8 1014.8 0.0
04/03:00am 16.0 15.3 11.4 74 2.5 ESE 6 7 3 4 1015.1 1015.1 0.0
04/02:30am 15.8 15.1 11.4 75 2.4 E 6 7 3 4 1015.4 1015.4 0.0
04/02:00am 15.3 14.4 11.5 78 2.0 E 7 9 4 5 1015.6 1015.6 0.0
04/01:30am 14.8 14.0 11.0 78 2.0 E 6 7 3 4 1015.8 1015.8 0.0
04/01:00am 14.8 15.1 11.0 78 2.0 CALM 0 0 0 0 1016.0 1016.0 0.0
04/12:30am 13.9 12.9 10.3 79 1.9 SE 6 7 3 4 1016.2 1016.2 0.0
04/12:00am 14.3 13.6 10.1 76 2.2 E 4 7 2 4 1016.4 1016.4 0.0
 
Date/Time
EDT
Temp
°C
App
Temp
°C
Dew
Point
Rel
Hum
%
Delta-T
°C
Wind Press
QNH
hPa
Press
MSL
hPa
Rain
since 9 am
mm
Dir
 
Spd
km/h
Gust
km/h
Spd
kts
Gust
kts
03/11:30pm 15.1 14.0 10.5 74 2.4 ESE 7 7 4 4 1016.6 1016.6 0.0
03/11:00pm 15.0 13.5 10.4 74 2.4 ESE 9 11 5 6 1016.7 1016.7 0.0
03/10:30pm 15.7 14.2 10.5 71 2.7 SSE 9 11 5 6 1016.8 1016.8 0.0
03/10:00pm 16.5 13.9 10.8 69 3.0 SSE 15 19 8 10 1016.7 1016.7 0.0
03/09:30pm 16.9 13.8 10.3 65 3.5 SSE 17 22 9 12 1016.5 1016.5 0.0
03/09:00pm 17.7 13.9 9.1 57 4.5 SSE 19 24 10 13 1016.2 1016.2 0.0
03/08:30pm 18.4 15.1 9.7 57 4.6 SSE 17 22 9 12 1015.7 1015.7 0.0
03/08:00pm 19.1 16.6 9.6 54 5.0 SSE 13 17 7 9 1015.3 1015.3 0.0
03/07:30pm 20.0 17.3 11.7 59 4.6 SSW 17 24 9 13 1015.2 1015.2 0.0
03/07:00pm 20.7 17.1 10.5 52 5.5 SSW 20 24 11 13 1015.1 1015.1 0.0

Other Formats:

Comma delimited format used in spreadsheet applications
http://www.bom.gov.au/fwo/IDV60801/IDV60801.94870.axf

JavaScript Object Notation format (JSON) in row-major order
http://www.bom.gov.au/fwo/IDV60801/IDV60801.94870.json